createdAt,value
2022-09-24T00:01:28.505Z,21.10
2022-09-24T00:04:07.976Z,21.10
2022-09-24T00:06:37.820Z,21.10
2022-09-24T00:09:05.252Z,21.10
2022-09-24T00:11:33.063Z,21.10
2022-09-24T00:14:00.632Z,21.00
2022-09-24T00:16:31.444Z,21.00
2022-09-24T00:18:58.759Z,21.00
2022-09-24T00:21:28.603Z,21.10
2022-09-24T00:23:59.372Z,21.00
2022-09-24T00:26:45.213Z,21.00
2022-09-24T00:29:14.044Z,21.00
2022-09-24T00:31:41.242Z,21.00
2022-09-24T00:34:08.666Z,21.00
2022-09-24T00:36:35.649Z,21.00
2022-09-24T00:39:02.715Z,21.00
2022-09-24T00:41:32.529Z,21.00
2022-09-24T00:44:00.349Z,21.00
2022-09-24T00:46:41.203Z,21.00
2022-09-24T00:49:15.178Z,21.00
2022-09-24T00:51:44.304Z,20.90
2022-09-24T00:54:25.091Z,20.90
2022-09-24T00:56:54.043Z,20.90
2022-09-24T00:59:23.871Z,20.90
2022-09-24T01:01:59.187Z,20.90
2022-09-24T01:04:27.722Z,20.90
2022-09-24T01:06:56.197Z,20.90
2022-09-24T01:09:25.313Z,20.90
2022-09-24T01:12:06.779Z,20.90
2022-09-24T01:15:38.108Z,20.90
2022-09-24T01:18:26.281Z,20.90
2022-09-24T01:21:08.323Z,20.90
2022-09-24T01:24:17.737Z,20.90
2022-09-24T01:26:51.225Z,20.90
2022-09-24T01:29:42.234Z,20.90
2022-09-24T01:32:09.283Z,20.90
2022-09-24T01:34:50.365Z,20.90
2022-09-24T01:37:22.354Z,20.90
2022-09-24T01:39:51.516Z,20.80
2022-09-24T01:42:21.381Z,20.80
2022-09-24T01:44:49.094Z,20.80
2022-09-24T01:47:23.199Z,20.80
2022-09-24T01:49:53.449Z,20.80
2022-09-24T01:52:26.402Z,20.80
2022-09-24T01:54:56.595Z,20.80
2022-09-24T01:57:27.738Z,20.80
2022-09-24T02:00:00.169Z,20.80
2022-09-24T02:02:30.583Z,20.80
2022-09-24T02:05:18.207Z,20.80
2022-09-24T02:08:13.087Z,20.80
2022-09-24T02:11:00.275Z,20.80
2022-09-24T02:13:32.109Z,20.80
2022-09-24T02:16:02.395Z,20.70
2022-09-24T02:18:34.555Z,20.80
2022-09-24T02:21:06.969Z,20.70
2022-09-24T02:23:39.586Z,20.70
2022-09-24T02:26:06.964Z,20.70
2022-09-24T02:28:34.807Z,20.80
2022-09-24T02:31:22.096Z,20.70
2022-09-24T02:34:09.767Z,20.70
2022-09-24T02:36:38.498Z,20.70
2022-09-24T02:39:05.516Z,20.70
2022-09-24T02:41:33.926Z,20.70
2022-09-24T02:44:01.123Z,20.70
2022-09-24T02:46:28.299Z,20.70
2022-09-24T02:48:55.303Z,20.70
2022-09-24T02:51:22.224Z,20.70
2022-09-24T02:53:49.161Z,20.70
2022-09-24T02:56:16.120Z,20.70
2022-09-24T02:58:43.411Z,20.70
2022-09-24T03:01:10.456Z,20.70
2022-09-24T03:03:37.447Z,20.60
2022-09-24T03:06:04.868Z,20.60
2022-09-24T03:08:33.110Z,20.60
2022-09-24T03:11:00.855Z,20.70
2022-09-24T03:13:27.824Z,20.70
2022-09-24T03:15:54.889Z,20.60
2022-09-24T03:18:22.103Z,20.60
2022-09-24T03:20:56.468Z,20.60
2022-09-24T03:23:23.794Z,20.60
2022-09-24T03:25:50.905Z,20.60
2022-09-24T03:28:18.221Z,20.60
2022-09-24T03:31:01.052Z,20.60
2022-09-24T03:33:34.055Z,20.60
2022-09-24T03:36:25.005Z,20.60
2022-09-24T03:38:56.918Z,20.60
2022-09-24T03:41:25.890Z,20.60
2022-09-24T03:43:53.043Z,20.60
2022-09-24T03:46:20.004Z,20.60
2022-09-24T03:48:47.512Z,20.60
2022-09-24T03:51:18.740Z,20.60
2022-09-24T03:53:47.333Z,20.60
2022-09-24T03:56:14.835Z,20.50
2022-09-24T03:58:41.977Z,20.60
2022-09-24T04:01:12.970Z,20.50
2022-09-24T04:03:40.772Z,20.60
2022-09-24T04:06:08.215Z,20.50
2022-09-24T04:08:35.572Z,20.50
2022-09-24T04:11:03.078Z,20.50
2022-09-24T04:13:30.248Z,20.50
2022-09-24T04:16:05.025Z,20.50
2022-09-24T04:18:35.672Z,20.50
2022-09-24T04:21:05.734Z,20.50
2022-09-24T04:23:32.697Z,20.50
2022-09-24T04:26:02.957Z,20.50
2022-09-24T04:28:30.862Z,20.50
2022-09-24T04:30:58.581Z,20.50
2022-09-24T04:33:25.568Z,20.50
2022-09-24T04:35:52.734Z,20.50
2022-09-24T04:38:21.381Z,20.50
2022-09-24T04:40:49.176Z,20.50
2022-09-24T04:43:16.871Z,20.50
2022-09-24T04:45:44.996Z,20.50
2022-09-24T04:48:12.642Z,20.40
2022-09-24T04:50:44.824Z,20.50
2022-09-24T04:53:13.508Z,20.40
2022-09-24T04:55:41.681Z,20.50
2022-09-24T04:58:09.375Z,20.50
2022-09-24T05:00:36.759Z,20.40
2022-09-24T05:03:04.256Z,20.40
2022-09-24T05:05:32.758Z,20.40
2022-09-24T05:08:01.609Z,20.40
2022-09-24T05:10:31.048Z,20.40
2022-09-24T05:12:58.279Z,20.40
2022-09-24T05:15:25.297Z,20.40
2022-09-24T05:17:52.404Z,20.40
2022-09-24T05:20:19.427Z,20.40
2022-09-24T05:22:49.237Z,20.40
2022-09-24T05:25:18.235Z,20.40
2022-09-24T05:27:53.824Z,20.40
2022-09-24T05:30:22.440Z,20.40
2022-09-24T05:32:52.080Z,20.40
2022-09-24T05:35:21.069Z,20.40
2022-09-24T05:37:49.729Z,20.40
2022-09-24T05:40:35.818Z,20.40
2022-09-24T05:43:04.138Z,20.30
2022-09-24T05:45:31.590Z,20.40
2022-09-24T05:48:00.164Z,20.40
2022-09-24T05:50:27.792Z,20.40
2022-09-24T05:52:55.003Z,20.40
2022-09-24T05:55:22.066Z,20.30
2022-09-24T05:57:49.229Z,20.30
2022-09-24T06:00:16.451Z,20.30
2022-09-24T06:02:43.484Z,20.30
2022-09-24T06:05:11.182Z,20.30
2022-09-24T06:07:38.317Z,20.40
2022-09-24T06:10:07.434Z,20.30
2022-09-24T06:12:35.026Z,20.30
2022-09-24T06:15:02.769Z,20.30
2022-09-24T06:17:31.182Z,20.30
2022-09-24T06:19:58.099Z,20.30
2022-09-24T06:22:28.366Z,20.30
2022-09-24T06:24:55.934Z,20.30
2022-09-24T06:27:22.947Z,20.30
2022-09-24T06:29:49.966Z,20.30
2022-09-24T06:32:19.886Z,20.30
2022-09-24T06:34:47.509Z,20.30
2022-09-24T06:37:14.573Z,20.30
2022-09-24T06:39:41.511Z,20.30
2022-09-24T06:42:08.819Z,20.30
2022-09-24T06:44:36.039Z,20.30
2022-09-24T06:47:03.124Z,20.30
2022-09-24T06:49:33.875Z,20.20
2022-09-24T06:52:01.633Z,20.30
2022-09-24T06:54:28.607Z,20.20
2022-09-24T06:56:55.583Z,20.30
2022-09-24T06:59:22.650Z,20.30
2022-09-24T07:01:49.703Z,20.30
2022-09-24T07:04:16.708Z,20.20
2022-09-24T07:07:02.161Z,20.30
2022-09-24T07:09:29.152Z,20.30
2022-09-24T07:11:58.845Z,20.30
2022-09-24T07:14:25.809Z,20.30
2022-09-24T07:16:53.985Z,20.30
2022-09-24T07:19:21.095Z,20.30
2022-09-24T07:21:48.076Z,20.30
2022-09-24T07:24:15.130Z,20.30
2022-09-24T07:26:42.273Z,20.30
2022-09-24T07:29:09.232Z,20.30
2022-09-24T07:31:36.706Z,20.30
2022-09-24T07:34:06.328Z,20.30
2022-09-24T07:36:33.244Z,20.30
2022-09-24T07:39:01.314Z,20.30
2022-09-24T07:41:29.673Z,20.30
2022-09-24T07:43:56.708Z,20.30
2022-09-24T07:46:24.749Z,20.30
2022-09-24T07:48:58.594Z,20.30
2022-09-24T07:51:27.564Z,20.30
2022-09-24T07:53:58.235Z,20.30
2022-09-24T07:56:25.639Z,20.30
2022-09-24T07:58:53.337Z,20.30
2022-09-24T08:01:20.908Z,20.30
2022-09-24T08:03:48.139Z,20.20
2022-09-24T08:06:15.211Z,20.20
2022-09-24T08:08:43.498Z,20.20
2022-09-24T08:11:14.873Z,20.20
2022-09-24T08:13:41.857Z,20.20
2022-09-24T08:16:09.251Z,20.20
2022-09-24T08:18:36.205Z,20.10
2022-09-24T08:21:09.334Z,20.10
2022-09-24T08:23:36.532Z,20.10
2022-09-24T08:26:04.500Z,20.10
2022-09-24T08:28:31.648Z,20.10
2022-09-24T08:31:09.013Z,20.10
2022-09-24T08:33:37.085Z,20.00
2022-09-24T08:36:07.155Z,20.00
2022-09-24T08:38:34.129Z,20.00
2022-09-24T08:41:13.987Z,20.00
2022-09-24T08:44:02.943Z,20.00
2022-09-24T08:46:55.020Z,20.00
2022-09-24T08:49:35.308Z,19.90
2022-09-24T08:52:39.885Z,19.90
2022-09-24T08:55:13.852Z,19.90
2022-09-24T08:58:24.900Z,19.90
2022-09-24T09:01:01.571Z,19.90
2022-09-24T09:03:50.467Z,19.90
2022-09-24T09:06:36.405Z,19.90
2022-09-24T09:09:20.168Z,19.80
2022-09-24T09:11:52.188Z,19.80
2022-09-24T09:14:42.233Z,19.80
2022-09-24T09:17:31.267Z,19.80
2022-09-24T09:20:01.804Z,19.80
2022-09-24T09:22:35.696Z,19.70
2022-09-24T09:25:36.248Z,19.70
2022-09-24T09:28:15.361Z,19.80
2022-09-24T09:30:56.806Z,19.70
2022-09-24T09:33:39.636Z,19.70
2022-09-24T09:36:29.361Z,19.70
2022-09-24T09:39:33.900Z,19.70
2022-09-24T09:42:13.357Z,19.70
2022-09-24T09:44:42.314Z,19.60
2022-09-24T09:47:40.926Z,19.60
2022-09-24T09:50:26.140Z,19.60
2022-09-24T09:52:53.279Z,19.50
2022-09-24T09:55:29.952Z,19.50
2022-09-24T09:58:15.131Z,19.40
2022-09-24T10:00:42.311Z,19.40
2022-09-24T10:03:31.294Z,19.30
2022-09-24T10:06:05.076Z,19.30
2022-09-24T10:08:32.621Z,19.30
2022-09-24T10:11:01.464Z,19.30
2022-09-24T10:13:28.683Z,19.30
2022-09-24T10:15:58.510Z,19.30
2022-09-24T10:18:48.609Z,19.30
2022-09-24T10:21:34.458Z,19.30
2022-09-24T10:24:05.009Z,19.30
2022-09-24T10:26:45.313Z,19.40
2022-09-24T10:29:38.248Z,19.40
2022-09-24T10:32:07.491Z,19.40
2022-09-24T10:34:34.439Z,19.40
2022-09-24T10:37:15.265Z,19.40
2022-09-24T10:39:42.580Z,19.40
2022-09-24T10:42:26.821Z,19.40
2022-09-24T10:44:55.361Z,19.40
2022-09-24T10:47:37.358Z,19.30
2022-09-24T10:50:16.683Z,19.40
2022-09-24T10:52:56.733Z,19.30
2022-09-24T10:55:55.395Z,19.40
2022-09-24T10:58:43.392Z,19.40
2022-09-24T11:01:19.348Z,19.40
2022-09-24T11:04:18.352Z,19.40
2022-09-24T11:07:00.419Z,19.30
2022-09-24T11:09:48.637Z,19.40
2022-09-24T11:12:49.360Z,19.40
2022-09-24T11:15:54.878Z,19.40
2022-09-24T11:18:30.381Z,19.40
2022-09-24T11:21:12.768Z,19.50
2022-09-24T11:24:17.273Z,19.40
2022-09-24T11:26:59.536Z,19.50
2022-09-24T11:29:51.571Z,19.50
2022-09-24T11:32:24.676Z,19.50
2022-09-24T11:35:07.761Z,19.50
2022-09-24T11:37:40.616Z,19.60
2022-09-24T11:40:23.586Z,19.60
2022-09-24T11:43:35.498Z,19.60
2022-09-24T11:46:30.721Z,19.60
2022-09-24T11:49:35.341Z,19.60
2022-09-24T11:52:44.474Z,19.60
2022-09-24T11:55:24.120Z,19.60
2022-09-24T11:58:07.075Z,19.60
2022-09-24T12:00:40.607Z,19.60
2022-09-24T12:03:39.562Z,19.60
2022-09-24T12:06:12.964Z,19.60
2022-09-24T12:08:50.525Z,19.60
2022-09-24T12:11:33.235Z,19.60
2022-09-24T12:14:03.498Z,19.60
2022-09-24T12:16:36.384Z,19.60
2022-09-24T12:19:14.600Z,19.60
2022-09-24T12:21:45.367Z,19.60
2022-09-24T12:24:35.331Z,19.60
2022-09-24T12:27:12.252Z,19.60
2022-09-24T12:30:27.735Z,19.60
2022-09-24T12:33:18.307Z,19.60
2022-09-24T12:36:01.927Z,19.60
2022-09-24T12:38:52.151Z,19.60
2022-09-24T12:41:33.883Z,19.60
2022-09-24T12:44:21.717Z,19.60
2022-09-24T12:46:53.598Z,19.60
2022-09-24T12:49:30.017Z,19.60
2022-09-24T12:52:02.828Z,19.60
2022-09-24T12:54:35.455Z,19.60
2022-09-24T12:57:26.538Z,19.60
2022-09-24T13:00:00.725Z,19.70
2022-09-24T13:02:31.325Z,19.70
2022-09-24T13:05:01.188Z,19.70
2022-09-24T13:07:41.653Z,19.80
2022-09-24T13:10:28.441Z,19.80
2022-09-24T13:12:57.547Z,19.80
2022-09-24T13:15:33.323Z,19.80
2022-09-24T13:18:17.997Z,19.80
2022-09-24T13:20:56.076Z,19.80
2022-09-24T13:23:23.005Z,19.80
2022-09-24T13:26:03.764Z,19.80
2022-09-24T13:28:38.604Z,19.80
2022-09-24T13:31:11.522Z,19.80
2022-09-24T13:33:45.478Z,19.80
2022-09-24T13:36:23.956Z,19.80
2022-09-24T13:39:01.639Z,19.80
2022-09-24T13:41:40.665Z,19.80
2022-09-24T13:44:42.829Z,19.80
2022-09-24T13:47:22.848Z,19.70
2022-09-24T13:49:52.450Z,19.70
2022-09-24T13:52:28.779Z,19.70
2022-09-24T13:55:00.601Z,19.70
2022-09-24T13:57:30.005Z,19.60
2022-09-24T14:00:20.117Z,19.60
2022-09-24T14:03:21.403Z,19.60
2022-09-24T14:05:50.539Z,19.60
2022-09-24T14:08:21.357Z,19.60
2022-09-24T14:10:51.419Z,19.60
2022-09-24T14:13:23.623Z,19.60
2022-09-24T14:16:07.488Z,19.60
2022-09-24T14:18:35.250Z,19.60
2022-09-24T14:21:10.991Z,19.60
2022-09-24T14:23:46.133Z,19.60
2022-09-24T14:26:32.270Z,19.60
2022-09-24T14:29:04.988Z,19.60
2022-09-24T14:31:32.076Z,19.50
2022-09-24T14:34:03.815Z,19.50
2022-09-24T14:36:30.811Z,19.40
2022-09-24T14:39:04.064Z,19.50
2022-09-24T14:41:34.380Z,19.40
2022-09-24T14:44:20.742Z,19.40
2022-09-24T14:46:51.024Z,19.40
2022-09-24T14:49:27.619Z,19.40
2022-09-24T14:52:03.337Z,19.40
2022-09-24T14:54:34.945Z,19.40
2022-09-24T14:57:19.857Z,19.40
2022-09-24T14:59:47.443Z,19.40
2022-09-24T15:02:29.610Z,19.40
2022-09-24T15:05:06.754Z,19.40
2022-09-24T15:07:35.407Z,19.40
2022-09-24T15:10:05.412Z,19.40
2022-09-24T15:12:37.287Z,19.40
2022-09-24T15:15:22.332Z,19.40
2022-09-24T15:17:49.355Z,19.40
2022-09-24T15:20:16.550Z,19.40
2022-09-24T15:22:43.543Z,19.40
2022-09-24T15:25:10.475Z,19.40
2022-09-24T15:27:38.892Z,19.40
2022-09-24T15:30:07.940Z,19.40
2022-09-24T15:32:36.153Z,19.40
2022-09-24T15:35:08.418Z,19.30
2022-09-24T15:37:39.255Z,19.30
2022-09-24T15:40:12.750Z,19.40
2022-09-24T15:42:39.705Z,19.30
2022-09-24T15:45:21.210Z,19.30
2022-09-24T15:47:52.607Z,19.30
2022-09-24T15:50:21.527Z,19.30
2022-09-24T15:52:59.637Z,19.30
2022-09-24T15:55:27.262Z,19.30
2022-09-24T15:57:54.715Z,19.30
2022-09-24T16:00:23.755Z,19.30
2022-09-24T16:02:53.936Z,19.30
2022-09-24T16:05:21.424Z,19.30
2022-09-24T16:07:49.140Z,19.30
2022-09-24T16:10:17.041Z,19.20
2022-09-24T16:12:44.190Z,19.20
2022-09-24T16:15:15.819Z,19.20
2022-09-24T16:17:43.195Z,19.20
2022-09-24T16:20:10.482Z,19.20
2022-09-24T16:22:37.470Z,19.20
2022-09-24T16:25:04.811Z,19.20
2022-09-24T16:27:31.816Z,19.20
2022-09-24T16:29:58.792Z,19.20
2022-09-24T16:32:25.865Z,19.20
2022-09-24T16:34:54.954Z,19.20
2022-09-24T16:37:21.883Z,19.20
2022-09-24T16:39:48.955Z,19.20
2022-09-24T16:42:15.954Z,19.20
2022-09-24T16:44:42.979Z,19.10
2022-09-24T16:47:10.148Z,19.10
2022-09-24T16:49:37.118Z,19.10
2022-09-24T16:52:04.378Z,19.10
2022-09-24T16:54:32.684Z,19.10
2022-09-24T16:57:01.788Z,19.10
2022-09-24T16:59:28.831Z,19.10
2022-09-24T17:01:55.878Z,19.10
2022-09-24T17:04:22.930Z,19.10
2022-09-24T17:06:49.899Z,19.10
2022-09-24T17:09:35.313Z,19.10
2022-09-24T17:12:02.256Z,19.00
2022-09-24T17:14:29.376Z,19.00
2022-09-24T17:16:56.400Z,19.00
2022-09-24T17:19:23.351Z,19.00
2022-09-24T17:21:50.450Z,19.00
2022-09-24T17:24:21.420Z,18.90
2022-09-24T17:26:49.640Z,18.90
2022-09-24T17:29:20.555Z,18.90
2022-09-24T17:31:47.902Z,18.90
2022-09-24T17:34:15.575Z,18.90
2022-09-24T17:36:42.933Z,18.90
2022-09-24T17:39:13.064Z,18.90
2022-09-24T17:41:40.180Z,18.90
2022-09-24T17:44:09.342Z,18.90
2022-09-24T17:46:36.593Z,18.90
2022-09-24T17:49:03.934Z,18.90
2022-09-24T17:51:33.192Z,18.90
2022-09-24T17:54:02.355Z,18.80
2022-09-24T17:56:38.576Z,18.80
2022-09-24T17:59:07.517Z,18.80
2022-09-24T18:01:36.949Z,18.80
2022-09-24T18:04:06.374Z,18.80
2022-09-24T18:06:37.129Z,18.80
2022-09-24T18:09:05.363Z,18.80
2022-09-24T18:11:44.899Z,18.80
2022-09-24T18:14:14.886Z,18.80
2022-09-24T18:16:42.181Z,18.80
2022-09-24T18:19:11.082Z,18.80
2022-09-24T18:21:38.370Z,18.80
2022-09-24T18:24:05.658Z,18.80
2022-09-24T18:26:37.354Z,18.80
2022-09-24T18:29:15.895Z,18.70
2022-09-24T18:31:43.808Z,18.70
2022-09-24T18:34:14.830Z,18.70
2022-09-24T18:36:43.520Z,18.70
2022-09-24T18:39:13.323Z,18.70
2022-09-24T18:41:41.632Z,18.70
2022-09-24T18:44:10.461Z,18.70
2022-09-24T18:46:37.729Z,18.70
2022-09-24T18:49:06.365Z,18.70
2022-09-24T18:51:36.160Z,18.70
2022-09-24T18:54:08.640Z,18.70
2022-09-24T18:56:36.452Z,18.70
2022-09-24T18:59:09.721Z,18.70
2022-09-24T19:01:38.977Z,18.70
2022-09-24T19:04:09.908Z,18.70
2022-09-24T19:06:39.850Z,18.70
2022-09-24T19:09:07.690Z,18.70
2022-09-24T19:11:35.258Z,18.60
2022-09-24T19:14:02.839Z,18.60
2022-09-24T19:16:30.863Z,18.60
2022-09-24T19:19:00.118Z,18.60
2022-09-24T19:21:27.278Z,18.60
2022-09-24T19:23:56.746Z,18.60
2022-09-24T19:26:25.727Z,18.60
2022-09-24T19:28:53.149Z,18.60
2022-09-24T19:31:36.628Z,18.60
2022-09-24T19:34:05.577Z,18.60
2022-09-24T19:36:43.026Z,18.60
2022-09-24T19:39:15.868Z,18.60
2022-09-24T19:41:43.749Z,18.60
2022-09-24T19:44:11.601Z,18.60
2022-09-24T19:46:39.547Z,18.60
2022-09-24T19:49:07.404Z,18.60
2022-09-24T19:51:35.222Z,18.60
2022-09-24T19:54:06.892Z,18.60
2022-09-24T19:56:35.376Z,18.60
2022-09-24T19:59:02.465Z,18.60
2022-09-24T20:01:31.735Z,18.60
2022-09-24T20:04:02.122Z,18.60
2022-09-24T20:06:31.345Z,18.60
2022-09-24T20:08:59.351Z,18.50
2022-09-24T20:11:26.852Z,18.50
2022-09-24T20:13:56.415Z,18.50
2022-09-24T20:16:26.709Z,18.60
2022-09-24T20:18:59.380Z,18.50
2022-09-24T20:21:28.525Z,18.50
2022-09-24T20:23:57.797Z,18.50
2022-09-24T20:26:43.974Z,18.50
2022-09-24T20:29:12.284Z,18.50
2022-09-24T20:31:51.129Z,18.50
2022-09-24T20:34:26.415Z,18.50
2022-09-24T20:36:53.405Z,18.50
2022-09-24T20:39:21.040Z,18.50
2022-09-24T20:41:49.504Z,18.50
2022-09-24T20:44:16.713Z,18.50
2022-09-24T20:46:43.700Z,18.50
2022-09-24T20:49:23.334Z,18.50
2022-09-24T20:51:57.464Z,18.50
2022-09-24T20:54:26.185Z,18.50
2022-09-24T20:56:53.115Z,18.50
2022-09-24T20:59:20.257Z,18.50
2022-09-24T21:01:48.146Z,18.50
2022-09-24T21:04:15.181Z,18.50
2022-09-24T21:06:42.123Z,18.50
2022-09-24T21:09:09.136Z,18.50
2022-09-24T21:11:36.308Z,18.50
2022-09-24T21:14:03.601Z,18.50
2022-09-24T21:16:33.338Z,18.50
2022-09-24T21:19:00.918Z,18.50
2022-09-24T21:21:30.644Z,18.50
2022-09-24T21:23:59.767Z,18.50
2022-09-24T21:26:31.659Z,18.50
2022-09-24T21:29:01.658Z,18.50
2022-09-24T21:31:31.352Z,18.50
2022-09-24T21:33:58.646Z,18.50
2022-09-24T21:36:29.299Z,18.50
2022-09-24T21:38:57.550Z,18.50
2022-09-24T21:41:27.179Z,18.50
2022-09-24T21:43:55.490Z,18.50
2022-09-24T21:46:23.234Z,18.50
2022-09-24T21:48:51.408Z,18.40
2022-09-24T21:51:21.554Z,18.50
2022-09-24T21:53:49.850Z,18.40
2022-09-24T21:56:18.838Z,18.40
2022-09-24T21:58:46.880Z,18.50
2022-09-24T22:01:19.292Z,18.50
2022-09-24T22:03:46.922Z,18.40
2022-09-24T22:06:15.237Z,18.50
2022-09-24T22:08:43.219Z,18.50
2022-09-24T22:11:11.760Z,18.50
2022-09-24T22:13:39.403Z,18.50
2022-09-24T22:16:10.795Z,18.50
2022-09-24T22:18:39.089Z,18.50
2022-09-24T22:21:11.986Z,18.50
2022-09-24T22:23:39.340Z,18.50
2022-09-24T22:26:08.330Z,18.50
2022-09-24T22:28:36.241Z,18.50
2022-09-24T22:31:06.840Z,18.50
2022-09-24T22:33:52.279Z,18.50
2022-09-24T22:36:19.427Z,18.50
2022-09-24T22:38:48.678Z,18.50
2022-09-24T22:41:15.635Z,18.50
2022-09-24T22:43:42.527Z,18.50
2022-09-24T22:46:13.211Z,18.50
2022-09-24T22:48:40.707Z,18.50
2022-09-24T22:51:08.836Z,18.50
2022-09-24T22:53:37.813Z,18.50
2022-09-24T22:56:13.518Z,18.40
2022-09-24T22:58:43.045Z,18.40
2022-09-24T23:01:11.067Z,18.40
2022-09-24T23:03:38.176Z,18.40
2022-09-24T23:06:06.961Z,18.40
2022-09-24T23:08:35.861Z,18.40
2022-09-24T23:11:10.481Z,18.40
2022-09-24T23:13:38.876Z,18.40
2022-09-24T23:16:14.112Z,18.30
2022-09-24T23:18:43.558Z,18.30
2022-09-24T23:21:16.213Z,18.40
2022-09-24T23:23:43.862Z,18.30
2022-09-24T23:26:17.949Z,18.30
2022-09-24T23:28:51.092Z,18.30
2022-09-24T23:31:19.070Z,18.30
2022-09-24T23:33:46.131Z,18.30
2022-09-24T23:36:14.266Z,18.30
2022-09-24T23:38:42.607Z,18.30
2022-09-24T23:41:10.888Z,18.30
2022-09-24T23:43:38.220Z,18.30
2022-09-24T23:46:05.504Z,18.20
2022-09-24T23:48:32.743Z,18.20
2022-09-24T23:50:59.727Z,18.20
2022-09-24T23:53:27.265Z,18.20
2022-09-24T23:55:55.264Z,18.20
2022-09-24T23:58:23.720Z,18.20
